Time;durP1;ratioP1;P1;durP2;ratioP2;P2;SDS_P1;SDS_P2;PMS_P1;PMS_P2;Temp;Humidity;BMP_temperature;BMP_pressure;BME280_temperature;BME280_humidity;BME280_pressure;Samples;Min_cycle;Max_cycle;Signal;HPM_P1;HPM_P2
2022/04/11 00:00:32;;;;;;;1.63;0.20;;;;;;;0.04;50.54;101967.63;5009031;28;20041;-69
2022/04/11 00:02:58;;;;;;;4.18;0.80;;;;;;;-0.02;50.96;101972.63;5044362;28;20528;-69
2022/04/11 00:05:24;;;;;;;1.40;0.25;;;;;;;0.03;50.94;101965.84;5050522;28;20040;-69
2022/04/11 00:07:50;;;;;;;1.42;0.32;;;;;;;0.00;51.23;101964.09;5048998;28;20059;-72
2022/04/11 00:10:16;;;;;;;2.95;0.70;;;;;;;-0.07;51.56;101964.81;5035593;28;20037;-69
2022/04/11 00:12:41;;;;;;;3.05;0.50;;;;;;;0.03;51.55;101973.56;5045094;28;20032;-67
2022/04/11 00:15:07;;;;;;;0.90;0.40;;;;;;;-0.08;51.77;101970.78;5045643;28;20130;-69
2022/04/11 00:17:34;;;;;;;2.70;1.08;;;;;;;-0.00;51.27;101976.09;5045483;28;20406;-69
2022/04/11 00:20:04;;;;;;;2.00;0.68;;;;;;;-0.06;51.43;101965.66;5041930;28;21002;-66
2022/04/11 00:22:29;;;;;;;2.42;0.52;;;;;;;-0.06;51.19;101968.25;5041376;28;20040;-67
2022/04/11 00:24:55;;;;;;;1.55;0.40;;;;;;;-0.13;51.16;101972.38;5041479;28;20425;-67
2022/04/11 00:27:21;;;;;;;2.50;0.63;;;;;;;-0.13;51.28;101978.38;5044406;28;20029;-67
2022/04/11 00:29:47;;;;;;;1.45;0.50;;;;;;;-0.11;50.98;101967.28;5041367;28;20082;-66
2022/04/11 00:32:13;;;;;;;3.33;0.63;;;;;;;-0.04;51.13;101975.16;5049629;28;20040;-67
2022/04/11 00:34:38;;;;;;;5.25;0.47;;;;;;;-0.07;51.47;101976.78;5026294;28;20452;-68
2022/04/11 00:37:04;;;;;;;4.20;0.45;;;;;;;-0.11;51.01;101975.00;5038070;28;20505;-70
2022/04/11 00:39:30;;;;;;;1.30;0.50;;;;;;;-0.19;51.07;101979.94;5046777;28;20037;-68
2022/04/11 00:41:58;;;;;;;5.13;0.68;;;;;;;-0.39;51.12;101977.81;5040221;28;20042;-67
2022/04/11 00:44:23;;;;;;;3.47;0.50;;;;;;;-0.46;50.99;101972.47;5043614;28;20036;-71
2022/04/11 00:46:49;;;;;;;0.55;0.20;;;;;;;-0.48;50.97;101971.56;5032612;28;20013;-71
2022/04/11 00:49:14;;;;;;;1.17;0.30;;;;;;;-0.56;51.28;101974.81;5053501;28;20047;-71
2022/04/11 00:51:40;;;;;;;1.58;0.40;;;;;;;-0.52;51.17;101969.78;5046783;28;20044;-65
2022/04/11 00:54:08;;;;;;;4.07;0.55;;;;;;;-0.51;51.20;101966.38;5059034;28;20028;-65
2022/04/11 00:56:35;;;;;;;1.48;0.30;;;;;;;-0.58;51.10;101965.34;5016429;28;20048;-65
2022/04/11 00:59:02;;;;;;;1.30;0.50;;;;;;;-0.63;51.23;101967.81;5028373;28;20037;-66
2022/04/11 01:01:28;;;;;;;1.27;0.55;;;;;;;-0.53;51.48;101968.03;5041434;28;20032;-66
2022/04/11 01:03:54;;;;;;;1.23;0.30;;;;;;;-0.40;51.44;101972.63;5040499;28;20067;-66
2022/04/11 01:06:19;;;;;;;1.92;0.70;;;;;;;-0.38;51.07;101968.41;5044685;28;20123;-67
2022/04/11 01:08:47;;;;;;;2.53;0.32;;;;;;;-0.36;51.23;101966.72;5043035;28;20124;-66
2022/04/11 01:11:13;;;;;;;2.65;0.55;;;;;;;-0.34;50.96;101967.63;5041764;28;20187;-65
2022/04/11 01:13:42;;;;;;;2.97;0.60;;;;;;;-0.38;51.06;101958.97;5044870;28;20097;-65
2022/04/11 01:16:07;;;;;;;1.25;0.38;;;;;;;-0.32;51.17;101962.53;5035617;28;20407;-65
2022/04/11 01:18:37;;;;;;;1.80;0.40;;;;;;;-0.33;51.17;101961.66;5043751;28;20032;-65
2022/04/11 01:21:05;;;;;;;4.18;0.47;;;;;;;-0.31;50.92;101966.84;5030095;28;20045;-66
2022/04/11 01:23:33;;;;;;;4.72;0.73;;;;;;;-0.42;51.11;101964.88;5045796;28;20057;-65
2022/04/11 01:25:58;;;;;;;2.45;0.50;;;;;;;-0.40;51.09;101964.91;5041730;28;20044;-67
2022/04/11 01:28:24;;;;;;;4.80;0.43;;;;;;;-0.36;50.89;101956.44;5042670;28;20025;-69
2022/04/11 01:30:52;;;;;;;2.67;0.40;;;;;;;-0.45;51.10;101953.69;5023808;28;20033;-64
2022/04/11 01:33:28;;;;;;;0.80;0.30;;;;;;;-0.48;51.13;101951.91;5044697;28;20032;-64
2022/04/11 01:35:59;;;;;;;2.53;0.38;;;;;;;-0.46;51.73;101949.34;5022895;28;20130;-66
2022/04/11 01:38:24;;;;;;;2.50;0.45;;;;;;;-0.44;51.37;101948.56;5035964;28;20033;-65
2022/04/11 01:40:56;;;;;;;1.48;0.45;;;;;;;-0.45;51.13;101948.53;5037796;28;20094;-64
2022/04/11 01:43:23;;;;;;;;;;;;;;;-0.44;51.56;101948.56;5043679;28;20402;-65
2022/04/11 01:45:49;;;;;;;2.13;0.50;;;;;;;-0.38;51.10;101947.84;5037980;28;19923;-66
2022/04/11 01:48:18;;;;;;;2.28;0.57;;;;;;;-0.38;50.97;101951.28;5057016;28;20032;-64
2022/04/11 01:50:44;;;;;;;2.42;0.30;;;;;;;-0.49;51.31;101947.59;5042296;28;20047;-70
2022/04/11 01:53:11;;;;;;;3.92;0.28;;;;;;;-0.51;51.18;101956.97;5024203;28;20032;-69
2022/04/11 01:55:39;;;;;;;2.78;0.65;;;;;;;-0.45;50.96;101951.09;5050603;28;20079;-72
2022/04/11 01:58:06;;;;;;;1.08;0.38;;;;;;;-0.49;51.55;101952.72;5030823;28;20639;-69
2022/04/11 02:00:36;;;;;;;2.75;0.60;;;;;;;-0.39;51.40;101958.97;5052564;28;20453;-68
2022/04/11 02:03:03;;;;;;;2.83;0.68;;;;;;;-0.57;51.15;101957.69;5035893;28;20137;-69
2022/04/11 02:05:29;;;;;;;2.63;0.50;;;;;;;-0.65;51.29;101955.78;5045290;28;20045;-68
2022/04/11 02:07:56;;;;;;;3.03;0.75;;;;;;;-0.62;51.54;101954.13;5042418;28;20044;-69
2022/04/11 02:10:25;;;;;;;1.55;0.85;;;;;;;-0.64;51.37;101958.38;5042966;28;20033;-70
2022/04/11 02:12:54;;;;;;;4.28;1.08;;;;;;;-0.76;51.35;101955.50;5006776;28;20164;-70
2022/04/11 02:15:20;;;;;;;4.13;0.52;;;;;;;-0.83;51.53;101956.19;5016861;28;20476;-70
2022/04/11 02:17:50;;;;;;;2.65;0.40;;;;;;;-0.95;51.76;101959.34;5029171;28;20045;-71
2022/04/11 02:20:16;;;;;;;3.60;0.73;;;;;;;-0.99;51.49;101960.94;5044064;28;20056;-70
2022/04/11 02:22:46;;;;;;;2.25;0.60;;;;;;;-0.95;52.16;101961.00;5044146;28;20053;-69
2022/04/11 02:25:12;;;;;;;2.15;0.75;;;;;;;-0.88;51.98;101960.38;5045265;28;20099;-69
2022/04/11 02:27:38;;;;;;;1.05;0.45;;;;;;;-0.77;51.82;101964.06;5048991;28;20079;-68
2022/04/11 02:30:04;;;;;;;3.30;0.45;;;;;;;-0.80;51.99;101966.53;5027707;28;20765;-69
2022/04/11 02:32:30;;;;;;;1.48;0.35;;;;;;;-0.79;52.03;101964.00;5043244;28;20054;-69
2022/04/11 02:34:56;;;;;;;1.00;0.30;;;;;;;-0.71;51.49;101969.31;5039718;28;20898;-68
2022/04/11 02:37:22;;;;;;;2.15;0.80;;;;;;;-0.69;51.86;101962.53;5043037;28;20356;-69
2022/04/11 02:39:47;;;;;;;2.88;0.73;;;;;;;-0.71;51.71;101973.59;5033312;28;20486;-69
2022/04/11 02:42:26;;;;;;;4.20;0.50;;;;;;;-0.81;51.56;101967.38;5042247;28;20080;-69
2022/04/11 02:44:59;;;;;;;2.28;0.25;;;;;;;-0.83;51.85;101971.59;5040475;28;20079;-70
2022/04/11 02:47:24;;;;;;;1.48;0.30;;;;;;;-0.85;51.71;101968.13;5045531;28;20452;-72
2022/04/11 02:49:50;;;;;;;0.98;0.30;;;;;;;-0.93;51.80;101962.78;5046402;28;20152;-75
2022/04/11 02:52:32;;;;;;;1.25;0.73;;;;;;;-0.89;51.90;101966.31;5037981;28;20041;-68
2022/04/11 02:54:58;;;;;;;2.00;0.50;;;;;;;-0.86;51.46;101971.50;5047953;28;20067;-69
2022/04/11 02:57:24;;;;;;;3.33;0.50;;;;;;;-0.93;51.64;101967.06;5046211;28;20059;-67
2022/04/11 02:59:51;;;;;;;2.28;0.60;;;;;;;-0.97;51.95;101968.69;5047417;28;20028;-68
2022/04/11 03:02:18;;;;;;;3.00;0.73;;;;;;;-0.94;51.68;101967.91;5053716;28;20045;-68
2022/04/11 03:04:43;;;;;;;2.15;0.45;;;;;;;-1.01;51.94;101960.03;5045150;28;20032;-69
2022/04/11 03:07:15;;;;;;;4.43;0.60;;;;;;;-1.06;51.64;101959.06;5049417;28;20925;-69
2022/04/11 03:09:41;;;;;;;2.67;0.60;;;;;;;-0.99;52.11;101972.91;5047698;28;20089;-68
2022/04/11 03:12:09;;;;;;;11.00;0.95;;;;;;;-1.04;52.00;101965.09;5049361;28;20029;-68
2022/04/11 03:14:34;;;;;;;3.55;1.25;;;;;;;-1.00;52.06;101966.03;5045739;28;20476;-67
2022/04/11 03:17:01;;;;;;;2.88;0.50;;;;;;;-1.10;51.91;101959.78;5047365;28;20032;-66
2022/04/11 03:19:30;;;;;;;3.10;0.50;;;;;;;-1.06;52.15;101964.19;5035086;28;20144;-68
2022/04/11 03:21:56;;;;;;;4.82;1.20;;;;;;;-1.06;51.82;101971.91;5034897;28;20094;-69
2022/04/11 03:24:21;;;;;;;2.67;1.05;;;;;;;-1.02;51.95;101963.44;5034207;28;20615;-71
2022/04/11 03:26:47;;;;;;;2.05;0.43;;;;;;;-1.09;51.89;101965.75;5031854;28;20041;-71
2022/04/11 03:29:21;;;;;;;2.08;0.73;;;;;;;-1.04;52.17;101965.09;5042213;28;20038;-72
2022/04/11 03:31:48;;;;;;;2.72;0.40;;;;;;;-1.04;52.30;101962.53;5026021;28;20476;-68
2022/04/11 03:34:14;;;;;;;3.97;0.70;;;;;;;-1.02;51.90;101957.41;5035002;28;20083;-69
2022/04/11 03:36:40;;;;;;;2.63;1.10;;;;;;;-1.14;51.83;101955.38;5033411;28;20029;-69
2022/04/11 03:39:06;;;;;;;2.13;0.50;;;;;;;-1.20;51.78;101961.25;5043060;28;20198;-70
2022/04/11 03:41:34;;;;;;;2.88;1.05;;;;;;;-1.37;51.83;101949.66;5061955;28;20174;-70
2022/04/11 03:44:10;;;;;;;2.47;0.63;;;;;;;-1.50;52.05;101953.59;5043842;28;20040;-69
2022/04/11 03:46:37;;;;;;;2.97;0.77;;;;;;;-1.57;52.39;101956.81;5047025;28;20036;-69
2022/04/11 03:49:06;;;;;;;5.85;0.75;;;;;;;-1.55;52.53;101950.03;5049946;28;20059;-71
2022/04/11 03:51:32;;;;;;;2.45;0.63;;;;;;;-1.59;52.72;101950.78;5046029;28;20106;-69
2022/04/11 03:53:59;;;;;;;3.80;0.80;;;;;;;-1.59;52.80;101948.19;5012634;28;20029;-70
2022/04/11 03:56:25;;;;;;;8.23;0.80;;;;;;;-1.58;52.81;101944.81;5026034;28;20932;-68
2022/04/11 03:58:50;;;;;;;2.63;0.77;;;;;;;-1.53;52.69;101956.06;5037541;28;20512;-69
2022/04/11 04:01:17;;;;;;;2.55;0.88;;;;;;;-1.49;52.74;101963.00;5050410;28;20068;-68
2022/04/11 04:03:42;;;;;;;1.77;0.73;;;;;;;-1.40;52.62;101954.69;5047747;28;20084;-65
2022/04/11 04:06:11;;;;;;;2.05;0.77;;;;;;;-1.39;52.23;101953.88;5045776;28;20041;-64
2022/04/11 04:08:41;;;;;;;2.03;1.00;;;;;;;-1.48;52.47;101954.50;5044860;28;20041;-64
2022/04/11 04:11:12;;;;;;;4.95;1.05;;;;;;;-1.55;52.55;101955.16;5050673;28;20060;-65
2022/04/11 04:13:47;;;;;;;5.78;0.88;;;;;;;-1.61;52.47;101955.84;5044260;28;20040;-69
2022/04/11 04:16:13;;;;;;;3.90;0.98;;;;;;;-1.67;52.34;101950.53;5029109;28;20039;-69
2022/04/11 04:18:43;;;;;;;1.77;0.80;;;;;;;-1.66;52.31;101946.31;5041580;28;20040;-68
2022/04/11 04:21:10;;;;;;;1.50;0.57;;;;;;;-1.72;52.53;101951.25;5044226;28;20162;-71
2022/04/11 04:23:37;;;;;;;3.28;1.05;;;;;;;-1.68;52.61;101947.94;5045566;28;20044;-69
2022/04/11 04:26:03;;;;;;;3.80;1.17;;;;;;;-1.69;52.68;101946.19;5047375;28;20085;-70
2022/04/11 04:28:29;;;;;;;1.55;0.85;;;;;;;-1.62;53.01;101948.09;5028620;28;20049;-69
2022/04/11 04:30:54;;;;;;;4.03;0.90;;;;;;;-1.57;52.90;101951.69;5026961;28;20024;-68
2022/04/11 04:33:20;;;;;;;7.95;1.02;;;;;;;-1.40;53.25;101954.69;5041262;28;20695;-71
2022/04/11 04:35:48;;;;;;;4.15;0.98;;;;;;;-1.26;52.73;101944.81;5030575;28;20032;-68
2022/04/11 04:38:14;;;;;;;3.45;1.13;;;;;;;-1.27;52.61;101950.75;5044875;28;20594;-68
2022/04/11 04:40:46;;;;;;;1.98;0.82;;;;;;;-1.17;52.45;101953.63;5043509;28;20062;-68
2022/04/11 04:43:15;;;;;;;3.25;1.10;;;;;;;-1.21;52.73;101948.38;5044013;28;20082;-67
2022/04/11 04:45:42;;;;;;;6.30;1.52;;;;;;;-1.10;52.67;101951.22;5041922;28;20036;-67
2022/04/11 04:48:14;;;;;;;4.38;0.65;;;;;;;-1.11;52.21;101952.88;5028596;28;20570;-68
2022/04/11 04:50:40;;;;;;;2.20;0.68;;;;;;;-0.99;52.50;101958.38;5042513;28;20123;-68
2022/04/11 04:53:10;;;;;;;2.25;0.77;;;;;;;-1.09;52.57;101951.22;5042603;28;20055;-68
2022/04/11 04:55:36;;;;;;;5.75;0.98;;;;;;;-1.14;52.39;101955.38;5046380;28;20350;-67
2022/04/11 04:58:02;;;;;;;4.82;0.77;;;;;;;-1.10;52.35;101962.34;5039518;28;20044;-68
2022/04/11 05:00:27;;;;;;;3.20;0.77;;;;;;;-0.95;52.32;101958.44;5027219;28;20036;-68
2022/04/11 05:02:54;;;;;;;6.07;0.70;;;;;;;-0.85;52.46;101950.16;5039518;28;20152;-67
2022/04/11 05:05:22;;;;;;;4.45;1.15;;;;;;;-0.73;52.34;101955.56;5043428;28;20041;-68
2022/04/11 05:07:49;;;;;;;8.38;1.25;;;;;;;-0.54;52.22;101962.03;5041706;28;20812;-67
2022/04/11 05:10:18;;;;;;;4.22;1.88;;;;;;;-0.41;51.94;101952.91;5035797;28;20033;-67
2022/04/11 05:12:47;;;;;;;4.53;1.40;;;;;;;-0.26;51.69;101955.84;5041261;28;20041;-68
2022/04/11 05:15:14;;;;;;;3.75;1.38;;;;;;;-0.13;51.36;101962.09;5042623;28;20048;-67
2022/04/11 05:17:42;;;;;;;2.35;0.90;;;;;;;-0.18;50.80;101966.28;5032501;28;20032;-74
2022/04/11 05:20:10;;;;;;;5.38;1.15;;;;;;;-0.21;51.01;101967.06;5033903;28;20056;-72
2022/04/11 05:22:40;;;;;;;6.85;1.48;;;;;;;-0.19;50.93;101960.28;5009783;28;20580;-74
2022/04/11 05:25:06;;;;;;;3.40;1.35;;;;;;;0.04;51.07;101967.63;5036280;28;20116;-74
2022/04/11 05:27:33;;;;;;;2.88;1.40;;;;;;;0.20;51.09;101966.22;5027616;28;20065;-76
2022/04/11 05:29:59;;;;;;;4.60;1.30;;;;;;;0.52;50.53;101966.00;5022810;28;20038;-75
2022/04/11 05:32:27;;;;;;;8.52;1.80;;;;;;;0.80;49.74;101962.25;5033406;28;20240;-76
2022/04/11 05:34:53;;;;;;;3.60;0.77;;;;;;;1.08;49.51;101956.75;5049669;28;20045;-75
2022/04/11 05:37:19;;;;;;;7.93;1.70;;;;;;;1.59;48.88;101961.84;5049288;28;20571;-71
2022/04/11 05:39:45;;;;;;;3.42;1.27;;;;;;;1.92;47.63;101957.16;5039785;28;20703;-72
2022/04/11 05:42:11;;;;;;;3.72;1.05;;;;;;;2.02;47.56;101968.47;5024254;28;20032;-72
2022/04/11 05:44:39;;;;;;;5.93;1.27;;;;;;;2.07;46.22;101965.97;5063362;28;20036;-73
2022/04/11 05:47:05;;;;;;;5.10;1.65;;;;;;;2.40;46.81;101965.50;5047685;28;20041;-71
2022/04/11 05:49:39;;;;;;;2.25;0.77;;;;;;;2.81;46.02;101969.38;5043148;28;20029;-70
2022/04/11 05:52:06;;;;;;;5.72;1.30;;;;;;;3.17;44.25;101967.13;5031951;28;20055;-70
2022/04/11 05:54:35;;;;;;;4.00;1.13;;;;;;;4.04;43.92;101967.72;5051698;28;20036;-71
2022/04/11 05:57:02;;;;;;;4.70;1.25;;;;;;;4.49;42.33;101977.38;5057927;28;20043;-70
2022/04/11 05:59:28;;;;;;;2.47;0.90;;;;;;;4.27;39.21;101971.25;5051202;28;20315;-71
2022/04/11 06:01:54;;;;;;;4.43;1.55;;;;;;;3.78;40.70;101974.50;5043519;28;20033;-71
2022/04/11 06:04:20;;;;;;;5.25;1.50;;;;;;;4.21;40.42;101971.25;5044016;28;20036;-70
2022/04/11 06:06:45;;;;;;;7.18;1.88;;;;;;;3.89;41.94;101974.53;5048327;28;20047;-73
2022/04/11 06:09:12;;;;;;;10.68;2.90;;;;;;;3.62;41.05;101970.06;5027917;28;20036;-71
2022/04/11 06:11:39;;;;;;;14.82;4.47;;;;;;;3.08;42.23;101977.38;5028120;28;20033;-69
2022/04/11 06:14:06;;;;;;;13.20;3.85;;;;;;;3.26;42.66;101975.81;5025931;28;20053;-69
2022/04/11 06:16:32;;;;;;;8.98;2.00;;;;;;;3.24;41.39;101978.38;5028950;28;20100;-70
2022/04/11 06:18:57;;;;;;;4.53;2.30;;;;;;;3.49;43.20;101984.66;5042127;28;20094;-70
2022/04/11 06:21:25;;;;;;;3.35;1.38;;;;;;;4.06;42.19;101991.88;5019399;28;20939;-74
2022/04/11 06:23:51;;;;;;;5.05;2.72;;;;;;;3.47;42.09;101981.19;5043293;28;20123;-75
2022/04/11 06:26:19;;;;;;;3.28;1.30;;;;;;;4.75;39.84;101969.69;5059832;28;20036;-76
2022/04/11 06:28:46;;;;;;;4.68;1.17;;;;;;;5.65;38.86;101971.44;5016874;28;20103;-76
2022/04/11 06:31:14;;;;;;;6.28;1.42;;;;;;;5.96;37.43;101971.38;5060297;28;20836;-75
2022/04/11 06:33:42;;;;;;;5.97;1.30;;;;;;;6.60;34.85;101970.25;5056208;28;20049;-74
2022/04/11 06:36:08;;;;;;;8.02;1.27;;;;;;;8.37;34.07;101966.00;5040364;28;20032;-74
2022/04/11 06:38:34;;;;;;;4.32;1.23;;;;;;;9.37;31.09;101965.34;5059973;28;20044;-74
2022/04/11 06:41:00;;;;;;;7.72;1.35;;;;;;;11.36;29.50;101961.97;5059014;28;20032;-73
2022/04/11 06:43:26;;;;;;;2.67;0.95;;;;;;;12.23;28.92;101966.56;5055487;28;20049;-74
2022/04/11 06:46:00;;;;;;;2.67;1.30;;;;;;;12.25;26.01;101959.53;5058668;28;20040;-71
2022/04/11 06:48:26;;;;;;;4.70;1.65;;;;;;;12.19;28.27;101964.94;5052590;28;20044;-72
2022/04/11 06:50:53;;;;;;;4.32;1.48;;;;;;;12.01;27.78;101975.97;5057932;28;20047;-74
2022/04/11 06:53:19;;;;;;;9.07;2.00;;;;;;;12.19;27.06;101980.66;5053479;28;20825;-70
2022/04/11 06:55:48;;;;;;;6.30;2.13;;;;;;;12.14;26.45;101977.34;5046148;28;20405;-71
2022/04/11 06:58:16;;;;;;;3.65;2.05;;;;;;;12.50;25.93;101969.28;5046684;28;20433;-70
2022/04/11 07:00:44;;;;;;;4.90;1.50;;;;;;;12.17;25.88;101972.00;5046122;28;20094;-71
2022/04/11 07:03:10;;;;;;;2.92;1.38;;;;;;;12.84;25.12;101963.84;5053153;28;20052;-69
2022/04/11 07:05:37;;;;;;;3.08;1.20;;;;;;;10.54;29.79;101965.66;5039715;28;20508;-70
2022/04/11 07:08:04;;;;;;;5.43;1.20;;;;;;;9.42;30.04;101965.28;5046832;28;20036;-70
2022/04/11 07:10:30;;;;;;;3.25;1.13;;;;;;;7.61;33.32;101978.16;5064552;28;20037;-70
2022/04/11 07:12:56;;;;;;;7.28;1.48;;;;;;;6.88;35.81;101976.13;5024100;28;20593;-71
2022/04/11 07:15:21;;;;;;;2.40;0.88;;;;;;;7.31;36.51;101974.94;5028073;28;20125;-72
2022/04/11 07:17:47;;;;;;;6.00;1.80;;;;;;;7.23;35.77;101972.41;5026212;28;20044;-72
2022/04/11 07:20:13;;;;;;;4.97;1.15;;;;;;;7.19;35.20;101975.91;5025951;28;20049;-70
2022/04/11 07:22:39;;;;;;;2.05;1.05;;;;;;;7.08;36.31;101977.72;4990504;28;20544;-71
2022/04/11 07:25:05;;;;;;;4.43;1.67;;;;;;;7.41;35.40;101965.31;5049967;28;20039;-69
2022/04/11 07:27:30;;;;;;;2.10;1.23;;;;;;;7.71;35.71;101975.47;5043589;28;20117;-71
2022/04/11 07:29:56;;;;;;;4.22;1.20;;;;;;;8.40;34.93;101967.69;5041793;28;20020;-71
2022/04/11 07:32:21;;;;;;;2.60;0.80;;;;;;;8.48;35.20;101963.25;5019614;28;20045;-70
2022/04/11 07:34:47;;;;;;;2.70;1.27;;;;;;;8.39;32.61;101973.81;5029774;28;20523;-70
2022/04/11 07:37:13;;;;;;;2.20;0.70;;;;;;;9.30;33.66;101976.78;5042896;28;20470;-70
2022/04/11 07:39:39;;;;;;;4.22;0.88;;;;;;;9.95;30.56;101970.41;5028077;28;20128;-71
2022/04/11 07:42:04;;;;;;;3.20;0.60;;;;;;;10.50;31.51;101969.22;5042833;28;20032;-70
2022/04/11 07:44:30;;;;;;;2.85;0.75;;;;;;;10.95;30.92;101968.25;5044929;28;20029;-72
2022/04/11 07:46:55;;;;;;;1.50;0.85;;;;;;;11.91;29.41;101972.75;5048374;28;20508;-70
2022/04/11 07:49:21;;;;;;;4.03;2.28;;;;;;;12.45;28.04;101976.44;5045200;28;20112;-70
2022/04/11 07:51:47;;;;;;;6.75;0.90;;;;;;;12.96;27.44;101970.47;5050024;28;20430;-69
2022/04/11 07:54:13;;;;;;;3.40;1.08;;;;;;;13.38;28.30;101977.81;5043143;28;20650;-70
2022/04/11 07:56:38;;;;;;;2.63;0.70;;;;;;;14.69;25.00;101968.63;5053048;28;20548;-70
2022/04/11 07:59:06;;;;;;;2.97;1.05;;;;;;;16.67;22.11;101961.72;5045516;28;20048;-71
2022/04/11 08:01:31;;;;;;;4.00;0.80;;;;;;;18.91;20.31;101958.72;5047111;28;20173;-71
2022/04/11 08:03:57;;;;;;;4.85;0.60;;;;;;;20.40;18.24;101957.56;5043864;28;20056;-72
2022/04/11 08:06:22;;;;;;;1.85;0.63;;;;;;;20.82;18.02;101959.19;5028964;28;20075;-71
2022/04/11 08:08:48;;;;;;;2.92;0.88;;;;;;;21.93;17.62;101955.09;5044857;28;20047;-70
2022/04/11 08:11:15;;;;;;;4.32;0.77;;;;;;;21.90;17.36;101958.00;5046549;28;20040;-72
2022/04/11 08:13:42;;;;;;;5.95;1.27;;;;;;;22.65;16.54;101953.50;5052143;28;20040;-70
2022/04/11 08:16:08;;;;;;;1.17;0.45;;;;;;;22.09;17.47;101956.69;5044873;28;20032;-71
2022/04/11 08:18:33;;;;;;;1.52;0.40;;;;;;;21.11;17.69;101959.06;5045351;28;20044;-71
2022/04/11 08:21:01;;;;;;;4.43;0.77;;;;;;;20.78;18.10;101952.38;5045467;28;20634;-73
2022/04/11 08:23:27;;;;;;;2.08;0.60;;;;;;;21.26;17.18;101959.81;5046059;28;20124;-72
2022/04/11 08:25:53;;;;;;;5.00;0.70;;;;;;;21.23;17.93;101958.22;5044229;28;20044;-71
2022/04/11 08:28:21;;;;;;;3.60;0.63;;;;;;;22.61;16.58;101949.38;5044852;28;20045;-71
2022/04/11 08:30:47;;;;;;;2.78;0.40;;;;;;;22.28;16.54;101956.22;5047136;28;20557;-72
2022/04/11 08:33:13;;;;;;;3.38;0.47;;;;;;;21.03;18.31;101956.09;5045072;28;20032;-71
2022/04/11 08:35:39;;;;;;;8.10;1.23;;;;;;;21.91;18.22;101953.53;5044660;28;20036;-72
2022/04/11 08:38:05;;;;;;;5.28;0.95;;;;;;;22.02;17.06;101948.28;5043770;28;20721;-71
2022/04/11 08:40:31;;;;;;;4.85;1.40;;;;;;;21.12;16.44;101950.13;5047426;28;20033;-74
2022/04/11 08:42:57;;;;;;;2.83;0.30;;;;;;;21.96;15.67;101946.06;5041109;28;20053;-71
2022/04/11 08:45:23;;;;;;;4.32;0.85;;;;;;;20.15;17.72;101951.16;5044369;28;20047;-72
2022/04/11 08:47:56;;;;;;;3.63;0.55;;;;;;;19.86;18.28;101951.19;5039562;28;20044;-70
2022/04/11 08:50:24;;;;;;;3.15;0.50;;;;;;;19.56;18.37;101951.28;5043011;28;20032;-73
2022/04/11 08:52:55;;;;;;;1.58;0.40;;;;;;;19.14;18.91;101954.69;5038784;28;20032;-72
2022/04/11 08:55:23;;;;;;;3.70;0.98;;;;;;;18.85;19.97;101952.81;5042972;28;20089;-70
2022/04/11 08:57:49;;;;;;;7.15;0.70;;;;;;;18.12;19.33;101954.28;5032701;28;20113;-71
2022/04/11 09:00:19;;;;;;;3.63;0.43;;;;;;;18.25;20.06;101955.34;5043827;28;20036;-71
2022/04/11 09:02:46;;;;;;;2.40;0.30;;;;;;;18.14;19.38;101955.03;5040541;28;20057;-71
2022/04/11 09:05:19;;;;;;;4.20;0.30;;;;;;;16.55;20.11;101955.22;5041932;28;20463;-71
2022/04/11 09:07:53;;;;;;;2.15;0.30;;;;;;;15.35;21.31;101951.91;5046757;28;20036;-72
2022/04/11 09:10:19;;;;;;;1.58;0.30;;;;;;;15.11;21.77;101959.88;5043330;28;20029;-71
2022/04/11 09:12:49;;;;;;;5.05;0.30;;;;;;;15.08;22.13;101946.88;5047730;28;20055;-73
2022/04/11 09:15:16;;;;;;;6.68;0.70;;;;;;;14.39;22.48;101943.50;5044095;28;20063;-72
2022/04/11 09:17:45;;;;;;;2.85;0.40;;;;;;;15.24;22.20;101955.00;5039732;28;20137;-72
2022/04/11 09:20:16;;;;;;;5.47;0.63;;;;;;;15.55;22.11;101957.16;5043452;28;20610;-71
2022/04/11 09:22:43;;;;;;;1.80;0.30;;;;;;;15.12;22.32;101956.31;5041316;28;20102;-72
2022/04/11 09:25:16;;;;;;;3.42;0.30;;;;;;;14.52;23.95;101955.28;5041700;28;20032;-70
2022/04/11 09:27:42;;;;;;;4.65;0.50;;;;;;;14.50;24.03;101954.47;5039155;28;20131;-72
2022/04/11 09:30:17;;;;;;;6.57;0.45;;;;;;;;;;5043518;28;20036;-72
2022/04/11 09:32:58;;;;;;;3.30;0.90;;;;;;;14.66;22.41;101947.72;5040487;28;20255;-71
2022/04/11 09:35:25;;;;;;;4.32;0.40;;;;;;;14.23;24.13;101949.38;5032356;28;20029;-71
2022/04/11 09:38:15;;;;;;;4.10;0.63;;;;;;;14.43;23.73;101948.59;5024949;28;20743;-71
2022/04/11 09:40:44;;;;;;;2.90;0.40;;;;;;;13.92;23.79;101949.69;5026267;28;20039;-71
2022/04/11 09:43:12;;;;;;;1.00;0.40;;;;;;;14.28;24.74;101951.81;5026762;28;20048;-71
2022/04/11 09:45:49;;;;;;;3.90;0.63;;;;;;;13.89;22.56;101942.75;5031771;28;20025;-71
2022/04/11 09:48:17;;;;;;;1.42;0.50;;;;;;;13.83;23.99;101950.88;5041849;28;20669;-74
2022/04/11 09:50:42;;;;;;;2.45;1.00;;;;;;;14.51;22.82;101943.06;5035821;28;20048;-73
2022/04/11 09:53:08;;;;;;;3.20;0.32;;;;;;;14.68;23.62;101948.50;5032920;28;20330;-72
2022/04/11 09:55:35;;;;;;;2.45;0.60;;;;;;;14.27;22.45;101948.31;5041326;28;20511;-73
2022/04/11 09:58:04;;;;;;;3.58;0.60;;;;;;;14.27;22.19;101943.06;5041596;28;20050;-71
2022/04/11 10:00:33;;;;;;;2.28;0.30;;;;;;;14.33;23.28;101939.34;5043833;28;20048;-73
2022/04/11 10:02:59;;;;;;;1.05;0.35;;;;;;;14.13;23.76;101932.22;5040401;28;20063;-71
2022/04/11 10:05:28;;;;;;;1.60;0.35;;;;;;;13.93;23.05;101933.84;5027431;28;20459;-72
2022/04/11 10:07:56;;;;;;;1.27;0.38;;;;;;;14.59;22.38;101935.72;5051140;28;20045;-73
2022/04/11 10:10:22;;;;;;;1.55;0.40;;;;;;;14.25;23.74;101925.63;5044750;28;20044;-72
2022/04/11 10:12:48;;;;;;;3.08;0.45;;;;;;;14.51;23.33;101924.66;5045911;28;20059;-72
2022/04/11 10:15:15;;;;;;;4.03;0.60;;;;;;;15.08;21.16;101928.44;5047235;28;20039;-72
2022/04/11 10:17:41;;;;;;;5.65;0.50;;;;;;;14.98;22.84;101919.19;5043282;28;20048;-72
2022/04/11 10:20:07;;;;;;;3.03;0.40;;;;;;;14.68;22.76;101916.94;5046706;28;20033;-72
2022/04/11 10:22:42;;;;;;;1.92;0.40;;;;;;;14.33;22.43;101908.63;5027382;28;20103;-72
2022/04/11 10:25:07;;;;;;;4.43;0.50;;;;;;;14.59;22.21;101914.69;5029298;28;20726;-72
2022/04/11 10:27:34;;;;;;;3.83;0.50;;;;;;;14.53;21.67;101917.56;5001627;28;20048;-72
2022/04/11 10:30:02;;;;;;;1.63;0.50;;;;;;;14.65;22.81;101918.81;5041081;28;20618;-72
2022/04/11 10:32:30;;;;;;;2.88;0.50;;;;;;;14.85;22.00;101915.38;5040630;28;20607;-72
2022/04/11 10:35:18;;;;;;;2.78;0.50;;;;;;;15.05;20.67;101909.28;5025079;28;20042;-72
2022/04/11 10:37:43;;;;;;;2.50;0.45;;;;;;;15.01;21.19;101916.44;5034252;28;20052;-73
2022/04/11 10:40:15;;;;;;;2.10;0.50;;;;;;;15.34;21.35;101905.41;5044912;28;20925;-72
2022/04/11 10:43:00;;;;;;;1.50;0.30;;;;;;;14.75;21.25;101914.91;5043094;28;20052;-71
2022/04/11 10:45:55;;;;;;;3.97;0.50;;;;;;;14.69;21.59;101916.00;5049537;28;20135;-72
2022/04/11 10:48:57;;;;;;;2.42;0.88;;;;;;;14.44;23.05;101907.41;5042465;28;20097;-71
2022/04/11 10:51:23;;;;;;;2.83;0.50;;;;;;;14.21;21.18;101900.38;5059670;28;20990;-72
2022/04/11 10:54:17;;;;;;;2.42;0.45;;;;;;;14.01;21.84;101907.28;5045151;28;20065;-72
2022/04/11 10:56:55;;;;;;;1.27;0.25;;;;;;;14.34;23.24;101899.84;5047619;28;20042;-72
2022/04/11 10:59:28;;;;;;;1.63;0.30;;;;;;;14.25;21.29;101904.59;5050958;28;20041;-73
2022/04/11 11:01:56;;;;;;;1.85;0.70;;;;;;;13.52;21.39;101899.41;5043372;28;20047;-70
2022/04/11 11:04:23;;;;;;;3.47;0.40;;;;;;;13.72;22.27;101895.22;5045841;28;20043;-70
2022/04/11 11:07:24;;;;;;;2.28;0.60;;;;;;;14.06;21.48;101878.19;5043317;28;20572;-72
2022/04/11 11:09:58;;;;;;;0.63;0.20;;;;;;;14.47;21.78;101878.34;5045504;28;20163;-72
2022/04/11 11:12:46;;;;;;;2.10;0.50;;;;;;;14.46;21.09;101884.53;5049992;28;20029;-72
2022/04/11 11:15:27;;;;;;;1.73;0.32;;;;;;;15.27;19.97;101875.00;5050042;28;20831;-71
2022/04/11 11:17:57;;;;;;;4.50;0.50;;;;;;;15.76;19.88;101878.06;5046326;28;20139;-72
2022/04/11 11:20:23;;;;;;;1.85;0.20;;;;;;;15.89;20.65;101873.09;5050789;28;20098;-72
2022/04/11 11:23:20;;;;;;;1.85;0.30;;;;;;;15.12;19.76;101877.34;5048364;28;20696;-71
2022/04/11 11:25:48;;;;;;;4.03;0.80;;;;;;;14.34;19.94;101873.56;5049368;28;20056;-71
2022/04/11 11:28:13;;;;;;;4.40;0.52;;;;;;;13.70;21.00;101876.88;5042266;28;20440;-71
2022/04/11 11:30:39;;;;;;;2.35;0.30;;;;;;;13.73;20.79;101875.91;5039133;28;20052;-72